createdAt,value
2016-11-27T00:00:40.616Z,525.87
2016-11-27T00:01:40.444Z,526.67
2016-11-27T00:02:40.523Z,527.25
2016-11-27T00:03:42.147Z,529.29
2016-11-27T00:04:40.442Z,529.65
2016-11-27T00:05:41.585Z,530.23
2016-11-27T00:06:40.427Z,531.45
2016-11-27T00:07:40.476Z,532.25
2016-11-27T00:08:40.410Z,532.62
2016-11-27T00:09:40.429Z,533.44
2016-11-27T00:10:40.512Z,534.24
2016-11-27T00:11:40.491Z,535.23
2016-11-27T00:12:40.423Z,536.02
2016-11-27T00:13:40.478Z,535.6
2016-11-27T00:14:40.483Z,535.63
2016-11-27T00:15:40.436Z,537.8
2016-11-27T00:16:40.460Z,538.82
2016-11-27T00:17:40.475Z,539.43
2016-11-27T00:18:40.453Z,539.78
2016-11-27T00:19:40.430Z,539.95
2016-11-27T00:20:40.477Z,540.12
2016-11-27T00:21:40.451Z,540.69
2016-11-27T00:22:40.442Z,541.48
2016-11-27T00:23:40.484Z,541.83
2016-11-27T00:24:40.429Z,542.43
2016-11-27T00:25:40.422Z,543.01
2016-11-27T00:26:40.442Z,543.51
2016-11-27T00:27:40.429Z,543.91
2016-11-27T00:28:40.422Z,545.48
2016-11-27T00:29:40.530Z,544.63
2016-11-27T00:30:40.504Z,544.83
2016-11-27T00:31:40.449Z,546.02
2016-11-27T00:32:40.432Z,545.13
2016-11-27T00:33:40.420Z,546.33
2016-11-27T00:34:40.453Z,545.99
2016-11-27T00:35:40.433Z,547.51
2016-11-27T00:36:40.451Z,547.12
2016-11-27T00:37:40.445Z,547.72
2016-11-27T00:38:40.437Z,548.71
2016-11-27T00:39:40.435Z,549.27
2016-11-27T00:40:40.435Z,550.46
2016-11-27T00:41:40.445Z,550.61
2016-11-27T00:42:40.424Z,551.47
2016-11-27T00:43:40.432Z,552.02
2016-11-27T00:44:40.433Z,552.68
2016-11-27T00:45:40.427Z,553
2016-11-27T00:46:40.451Z,553.75
2016-11-27T00:47:40.457Z,554.04
2016-11-27T00:48:40.448Z,554.31
2016-11-27T00:49:40.442Z,553.68
2016-11-27T00:50:40.442Z,552.83
2016-11-27T00:51:40.462Z,552.8
2016-11-27T00:52:40.452Z,552.59
2016-11-27T00:53:40.449Z,551.97
2016-11-27T00:54:40.449Z,552.34
2016-11-27T00:55:40.459Z,552.87
2016-11-27T00:56:40.472Z,553.85
2016-11-27T00:57:40.457Z,554.23
2016-11-27T00:58:40.443Z,555.01
2016-11-27T00:59:40.497Z,555.22
2016-11-27T01:00:40.448Z,555.84
2016-11-27T01:01:40.461Z,557
2016-11-27T01:02:40.499Z,557.99
2016-11-27T01:03:40.465Z,558.73
2016-11-27T01:04:40.460Z,558.97
2016-11-27T01:05:40.458Z,559.78
2016-11-27T01:06:40.496Z,560.34
2016-11-27T01:07:40.455Z,560.16
2016-11-27T01:08:40.457Z,561.31
2016-11-27T01:09:40.449Z,561.93
2016-11-27T01:10:40.465Z,562.89
2016-11-27T01:11:40.472Z,563.32
2016-11-27T01:12:40.472Z,564.45
2016-11-27T01:13:40.461Z,565.23
2016-11-27T01:14:40.467Z,566.41
2016-11-27T01:15:40.457Z,566.4
2016-11-27T01:16:40.480Z,567.97
2016-11-27T01:17:40.459Z,568.2
2016-11-27T01:18:40.457Z,568.94
2016-11-27T01:19:40.458Z,569.19
2016-11-27T01:20:40.462Z,570.54
2016-11-27T01:21:40.476Z,570.95
2016-11-27T01:22:40.454Z,571.74
2016-11-27T01:23:40.458Z,572.14
2016-11-27T01:24:40.464Z,572.07
2016-11-27T01:25:40.462Z,573.15
2016-11-27T01:26:40.479Z,573.55
2016-11-27T01:27:40.486Z,574.3
2016-11-27T01:28:40.475Z,575.47
2016-11-27T01:29:40.470Z,576.11
2016-11-27T01:30:40.481Z,577.28
2016-11-27T01:31:40.484Z,577.83
2016-11-27T01:32:40.466Z,578.19
2016-11-27T01:33:40.478Z,578.95
2016-11-27T01:34:40.484Z,579.74
2016-11-27T01:35:40.464Z,580.48
2016-11-27T01:36:40.486Z,582.2
2016-11-27T01:37:40.469Z,582.55
2016-11-27T01:38:40.500Z,584.53
2016-11-27T01:39:40.471Z,585.83
2016-11-27T01:40:40.480Z,587.32
2016-11-27T01:41:40.499Z,588.72
2016-11-27T01:42:40.477Z,590.42
2016-11-27T01:43:40.480Z,592.36
2016-11-27T01:44:40.491Z,593.46
2016-11-27T01:45:40.477Z,594.6
2016-11-27T01:46:40.501Z,595.73
2016-11-27T01:47:40.481Z,597.49
2016-11-27T01:48:40.508Z,598.31
2016-11-27T01:49:40.479Z,600.14
2016-11-27T01:50:40.485Z,601.52
2016-11-27T01:51:40.493Z,602.24
2016-11-27T01:52:40.490Z,603.98
2016-11-27T01:53:40.492Z,606.1
2016-11-27T01:54:40.484Z,607.02
2016-11-27T01:55:40.485Z,608.75
2016-11-27T01:56:40.492Z,609.66
2016-11-27T01:57:40.498Z,611.54
2016-11-27T01:58:40.489Z,612.96
2016-11-27T01:59:40.490Z,615.04
2016-11-27T02:00:40.480Z,615.71
2016-11-27T02:01:40.507Z,616.7
2016-11-27T02:02:40.491Z,618.36
2016-11-27T02:03:40.488Z,619.51
2016-11-27T02:04:40.490Z,620.82
2016-11-27T02:05:40.495Z,621.95
2016-11-27T02:06:40.507Z,623.45
2016-11-27T02:07:40.497Z,624.37
2016-11-27T02:08:40.494Z,625.6
2016-11-27T02:09:40.502Z,626.4
2016-11-27T02:10:40.497Z,627.98
2016-11-27T02:11:40.516Z,628.68
2016-11-27T02:12:40.498Z,629.53
2016-11-27T02:13:40.499Z,630.96
2016-11-27T02:14:40.494Z,632.25
2016-11-27T02:15:40.494Z,633.85
2016-11-27T02:16:40.509Z,634.92
2016-11-27T02:17:40.509Z,635.57
2016-11-27T02:18:40.507Z,636.34
2016-11-27T02:19:40.494Z,638.12
2016-11-27T02:20:40.515Z,638.99
2016-11-27T02:21:40.549Z,639.97
2016-11-27T02:22:40.514Z,640.7
2016-11-27T02:23:40.512Z,641.4
2016-11-27T02:24:40.530Z,641.86
2016-11-27T02:25:40.506Z,642.19
2016-11-27T02:26:40.539Z,643.03
2016-11-27T02:27:40.530Z,642.63
2016-11-27T02:28:40.518Z,643.91
2016-11-27T02:29:40.520Z,644.41
2016-11-27T02:30:40.506Z,644.95
2016-11-27T02:31:40.522Z,645.28
2016-11-27T02:32:40.505Z,645.16
2016-11-27T02:33:40.508Z,646.29
2016-11-27T02:34:40.517Z,646.45
2016-11-27T02:35:40.514Z,647.76
2016-11-27T02:36:40.528Z,648.28
2016-11-27T02:37:40.524Z,648.47
2016-11-27T02:38:40.522Z,649.83
2016-11-27T02:39:40.521Z,650.36
2016-11-27T02:40:40.527Z,650.84
2016-11-27T02:41:40.522Z,652.31
2016-11-27T02:42:40.530Z,652.81
2016-11-27T02:43:40.521Z,654.1
2016-11-27T02:44:40.525Z,655.34
2016-11-27T02:45:40.543Z,656.44
2016-11-27T02:46:40.551Z,656.58
2016-11-27T02:47:40.527Z,658.07
2016-11-27T02:48:40.534Z,658.85
2016-11-27T02:49:40.539Z,658.81
2016-11-27T02:50:40.528Z,660.27
2016-11-27T02:51:40.535Z,660.92
2016-11-27T02:52:40.532Z,661.63
2016-11-27T02:53:40.535Z,661.56
2016-11-27T02:54:40.524Z,661.93
2016-11-27T02:55:40.527Z,661.75
2016-11-27T02:56:40.546Z,662.14
2016-11-27T02:57:40.541Z,663.25
2016-11-27T02:58:40.531Z,663.41
2016-11-27T02:59:40.528Z,663.58
2016-11-27T03:00:40.531Z,663.21
2016-11-27T03:01:40.553Z,664.34
2016-11-27T03:02:40.537Z,664.15
2016-11-27T03:03:40.537Z,665.24
2016-11-27T03:04:40.543Z,665.08
2016-11-27T03:05:40.542Z,664.73
2016-11-27T03:06:40.549Z,665.28
2016-11-27T03:07:40.544Z,664.1
2016-11-27T03:08:40.523Z,662.99
2016-11-27T03:09:40.550Z,663.56
2016-11-27T03:10:40.560Z,664.09
2016-11-27T03:11:40.559Z,663.84
2016-11-27T03:12:40.541Z,663.8
2016-11-27T03:13:40.534Z,664.9
2016-11-27T03:14:40.536Z,664.16
2016-11-27T03:15:40.554Z,664.78
2016-11-27T03:16:40.580Z,664.57
2016-11-27T03:17:40.561Z,665.72
2016-11-27T03:18:40.539Z,664.08
2016-11-27T03:19:40.548Z,663.23
2016-11-27T03:20:40.554Z,663.48
2016-11-27T03:21:40.576Z,663.09
2016-11-27T03:22:40.551Z,663.46
2016-11-27T03:23:40.553Z,664.1
2016-11-27T03:24:40.560Z,665.07
2016-11-27T03:25:40.548Z,664.76
2016-11-27T03:26:40.576Z,665.08
2016-11-27T03:27:40.565Z,665.69
2016-11-27T03:28:40.571Z,666.36
2016-11-27T03:29:40.559Z,666.37
2016-11-27T03:30:40.556Z,667.07
2016-11-27T03:31:40.561Z,667.64
2016-11-27T03:32:40.555Z,668.3
2016-11-27T03:33:40.558Z,668.85
2016-11-27T03:34:40.553Z,669.19
2016-11-27T03:35:40.559Z,669.9
2016-11-27T03:36:40.571Z,670.3
2016-11-27T03:37:40.569Z,670.91
2016-11-27T03:38:40.551Z,671.08
2016-11-27T03:39:40.550Z,671.5
2016-11-27T03:40:40.567Z,670.33
2016-11-27T03:41:40.590Z,671.09
2016-11-27T03:42:40.564Z,670.75
2016-11-27T03:43:40.565Z,671.25
2016-11-27T03:44:40.565Z,670.67
2016-11-27T03:45:40.578Z,672.02
2016-11-27T03:46:40.646Z,672.08
2016-11-27T03:47:40.577Z,672.94
2016-11-27T03:48:40.591Z,672.97
2016-11-27T03:49:40.578Z,673.52
2016-11-27T03:50:40.565Z,672.77
2016-11-27T03:51:40.571Z,672.04
2016-11-27T03:52:40.582Z,673.26
2016-11-27T03:53:40.565Z,672.66
2016-11-27T03:54:40.570Z,672.86
2016-11-27T03:55:40.551Z,672.98
2016-11-27T03:56:40.574Z,672.25
2016-11-27T03:57:40.573Z,672.22
2016-11-27T03:58:40.576Z,671.67
2016-11-27T03:59:40.573Z,671.93
2016-11-27T04:00:40.575Z,671.05
2016-11-27T04:01:40.574Z,670.86
2016-11-27T04:02:40.575Z,669.57
2016-11-27T04:03:40.579Z,668.86
2016-11-27T04:04:40.578Z,669.91
2016-11-27T04:05:40.575Z,669.56
2016-11-27T04:06:40.573Z,670.09
2016-11-27T04:07:40.573Z,669.7
2016-11-27T04:08:40.582Z,669
2016-11-27T04:09:40.579Z,669.15
2016-11-27T04:10:40.588Z,668.99
2016-11-27T04:11:40.575Z,668.31
2016-11-27T04:12:40.581Z,668.4
2016-11-27T04:13:40.578Z,667.87
2016-11-27T04:14:40.592Z,667.56
2016-11-27T04:15:40.585Z,668.29
2016-11-27T04:16:40.591Z,667.98
2016-11-27T04:17:40.576Z,667.56
2016-11-27T04:18:40.580Z,668.45
2016-11-27T04:19:40.575Z,668.08
2016-11-27T04:20:40.576Z,668.25
2016-11-27T04:21:40.594Z,668.61
2016-11-27T04:22:40.594Z,669.12
2016-11-27T04:23:40.588Z,669.42
2016-11-27T04:24:40.578Z,668.69
2016-11-27T04:25:40.595Z,669.25
2016-11-27T04:26:40.596Z,669.46
2016-11-27T04:27:40.591Z,669.12
2016-11-27T04:28:40.591Z,670.37
2016-11-27T04:29:40.591Z,669.63
2016-11-27T04:30:40.597Z,669.95
2016-11-27T04:31:40.595Z,670.06
2016-11-27T04:32:40.591Z,670.43
2016-11-27T04:33:40.598Z,670.36
2016-11-27T04:34:40.588Z,670.55
2016-11-27T04:35:40.597Z,670.59
2016-11-27T04:36:40.605Z,671
2016-11-27T04:37:40.610Z,670.38
2016-11-27T04:38:40.655Z,670.95
2016-11-27T04:39:40.613Z,670.6
2016-11-27T04:40:40.600Z,669.87
2016-11-27T04:41:40.603Z,670.72
2016-11-27T04:42:40.613Z,669.5
2016-11-27T04:43:40.614Z,669.74
2016-11-27T04:44:40.606Z,670
2016-11-27T04:45:40.610Z,668.93
2016-11-27T04:46:40.607Z,669.29
2016-11-27T04:47:40.614Z,669.4
2016-11-27T04:48:40.607Z,669.58
2016-11-27T04:49:40.602Z,669.66
2016-11-27T04:50:40.605Z,670.01
2016-11-27T04:51:40.625Z,669.82
2016-11-27T04:52:40.612Z,670.3
2016-11-27T04:53:40.618Z,670.11
2016-11-27T04:54:40.618Z,670.8
2016-11-27T04:55:40.617Z,670.5
2016-11-27T04:56:40.619Z,670.85
2016-11-27T04:57:40.609Z,671.4
2016-11-27T04:58:40.628Z,671.3
2016-11-27T04:59:40.624Z,670.81
2016-11-27T05:00:40.615Z,672.1
2016-11-27T05:01:40.606Z,671.88
2016-11-27T05:02:40.649Z,672.54
2016-11-27T05:03:40.628Z,672.69
2016-11-27T05:04:40.622Z,673.36
2016-11-27T05:05:40.627Z,672.8
2016-11-27T05:06:40.627Z,673.79
2016-11-27T05:07:40.613Z,674.32
2016-11-27T05:08:40.621Z,674.65
2016-11-27T05:09:40.627Z,674.49
2016-11-27T05:10:40.618Z,674.68
2016-11-27T05:11:40.623Z,674.91
2016-11-27T05:12:40.616Z,674.88
2016-11-27T05:13:40.620Z,675.35
2016-11-27T05:14:40.634Z,675.31
2016-11-27T05:15:40.620Z,675.34
2016-11-27T05:16:40.623Z,675.29
2016-11-27T05:17:40.629Z,674.74
2016-11-27T05:18:40.631Z,675.07
2016-11-27T05:19:40.624Z,674.36
2016-11-27T05:20:40.628Z,674.38
2016-11-27T05:21:40.624Z,674.94
2016-11-27T05:22:40.633Z,675.11
2016-11-27T05:23:40.629Z,675.41
2016-11-27T05:24:40.624Z,675.77
2016-11-27T05:25:40.643Z,675.28
2016-11-27T05:26:40.623Z,675.62
2016-11-27T05:27:40.629Z,676.28
2016-11-27T05:28:40.624Z,676.94
2016-11-27T05:29:40.625Z,677.45
2016-11-27T05:30:40.633Z,677.52
2016-11-27T05:31:40.625Z,678.25
2016-11-27T05:32:40.633Z,678.84
2016-11-27T05:33:40.628Z,678.71
2016-11-27T05:34:40.632Z,679.26
2016-11-27T05:35:40.620Z,680.62
2016-11-27T05:36:40.645Z,680.94
2016-11-27T05:37:40.635Z,681.65
2016-11-27T05:38:40.638Z,681.82
2016-11-27T05:39:40.638Z,682.36
2016-11-27T05:40:40.641Z,682.95
2016-11-27T05:41:40.642Z,683.11
2016-11-27T05:42:40.641Z,683.86
2016-11-27T05:43:40.639Z,684
2016-11-27T05:44:40.645Z,684.5
2016-11-27T05:45:40.634Z,683.82
2016-11-27T05:46:40.629Z,685.31
2016-11-27T05:47:40.644Z,684.82
2016-11-27T05:48:40.639Z,685.49
2016-11-27T05:49:40.646Z,685.79
2016-11-27T05:50:40.638Z,686.39
2016-11-27T05:51:40.646Z,686.98
2016-11-27T05:52:40.639Z,686.98
2016-11-27T05:53:40.645Z,687.49
2016-11-27T05:54:40.636Z,688.31
2016-11-27T05:55:40.645Z,689.42
2016-11-27T05:56:40.650Z,689.59
2016-11-27T05:57:40.645Z,690.39
2016-11-27T05:58:40.667Z,690.84
2016-11-27T05:59:40.672Z,690.7
2016-11-27T06:00:40.658Z,690.68
2016-11-27T06:01:40.656Z,691.57
2016-11-27T06:02:40.655Z,692
2016-11-27T06:03:40.655Z,691.61
2016-11-27T06:04:40.671Z,692.5
2016-11-27T06:05:40.659Z,692.42
2016-11-27T06:06:40.676Z,692.79
2016-11-27T06:07:40.655Z,693.13
2016-11-27T06:08:40.660Z,693.32
2016-11-27T06:09:40.669Z,694.4
2016-11-27T06:10:40.669Z,694.26
2016-11-27T06:11:40.671Z,694.94
2016-11-27T06:12:40.657Z,694.81
2016-11-27T06:13:40.662Z,695.19
2016-11-27T06:14:40.665Z,695.44
2016-11-27T06:15:40.676Z,695.62
2016-11-27T06:16:40.662Z,695.61
2016-11-27T06:17:40.660Z,695.93
2016-11-27T06:18:40.682Z,696.68
2016-11-27T06:19:40.739Z,695.47
2016-11-27T06:20:40.670Z,695.11
2016-11-27T06:21:40.726Z,695.65
2016-11-27T06:22:40.667Z,695.17
2016-11-27T06:23:40.675Z,695.9
2016-11-27T06:24:40.670Z,696.5
2016-11-27T06:25:40.669Z,696.99
2016-11-27T06:26:40.676Z,698.19
2016-11-27T06:27:40.675Z,698.61
2016-11-27T06:28:40.681Z,698.94
2016-11-27T06:29:40.674Z,699.43
2016-11-27T06:30:40.688Z,699.34
2016-11-27T06:31:40.689Z,699.14
2016-11-27T06:32:40.675Z,699.16
2016-11-27T06:33:40.680Z,699.36
2016-11-27T06:34:40.682Z,698.85
2016-11-27T06:35:40.689Z,699.06
2016-11-27T06:36:40.695Z,698.08
2016-11-27T06:37:40.704Z,698.98
2016-11-27T06:38:40.711Z,698.52
2016-11-27T06:39:40.709Z,698.69
2016-11-27T06:40:40.680Z,698.56
2016-11-27T06:41:40.684Z,698.54
2016-11-27T06:42:40.705Z,698.13
2016-11-27T06:43:40.684Z,698.86
2016-11-27T06:44:40.690Z,698.72
2016-11-27T06:45:40.716Z,698.55
2016-11-27T06:46:40.721Z,698.73
2016-11-27T06:47:40.706Z,699.76
2016-11-27T06:48:40.681Z,700.28
2016-11-27T06:49:40.683Z,700.32
2016-11-27T06:50:40.695Z,701.29
2016-11-27T06:51:40.702Z,702.4
2016-11-27T06:52:40.699Z,702.52
2016-11-27T06:53:40.705Z,703.55
2016-11-27T06:54:40.696Z,703.86
2016-11-27T06:55:40.702Z,704.31
2016-11-27T06:56:40.696Z,705.18
2016-11-27T06:57:40.703Z,705.31
2016-11-27T06:58:40.696Z,705.97
2016-11-27T06:59:40.692Z,706.66
2016-11-27T07:00:40.753Z,706.15
2016-11-27T07:01:40.692Z,707.2
2016-11-27T07:02:40.702Z,707.36
2016-11-27T07:03:40.693Z,707.69
2016-11-27T07:04:40.690Z,708.57
2016-11-27T07:05:40.699Z,708.26
2016-11-27T07:06:40.703Z,709.34
2016-11-27T07:07:40.700Z,709.13
2016-11-27T07:08:40.705Z,708.81
2016-11-27T07:09:40.709Z,709.52
2016-11-27T07:10:40.699Z,708.5
2016-11-27T07:11:40.706Z,708.84
2016-11-27T07:12:40.715Z,708.48
2016-11-27T07:13:40.708Z,709.02
2016-11-27T07:14:40.712Z,708.14
2016-11-27T07:15:40.706Z,707.66
2016-11-27T07:16:40.708Z,706.81
2016-11-27T07:17:40.704Z,705.91
2016-11-27T07:18:40.712Z,705.24
2016-11-27T07:19:40.707Z,703.65
2016-11-27T07:20:40.726Z,702.18
2016-11-27T07:21:40.731Z,700.98
2016-11-27T07:22:40.718Z,700.37
2016-11-27T07:23:40.724Z,699.21
2016-11-27T07:24:40.701Z,698.58
2016-11-27T07:25:40.718Z,697.96
2016-11-27T07:26:40.725Z,698.34
2016-11-27T07:27:40.713Z,698.17
2016-11-27T07:28:40.745Z,698.36
2016-11-27T07:29:40.731Z,697.58
2016-11-27T07:30:40.732Z,698.99
2016-11-27T07:31:40.728Z,699.5
2016-11-27T07:32:40.725Z,699.15
2016-11-27T07:33:40.725Z,701.28
2016-11-27T07:34:40.752Z,702.52
2016-11-27T07:35:40.734Z,703.75
2016-11-27T07:36:40.738Z,705.56
2016-11-27T07:37:40.731Z,707.53
2016-11-27T07:38:40.716Z,708.49
2016-11-27T07:39:40.734Z,710.24
2016-11-27T07:40:40.728Z,711.26
2016-11-27T07:41:40.748Z,713.26
2016-11-27T07:42:40.754Z,715.51
2016-11-27T07:43:40.760Z,717.02
2016-11-27T07:44:40.748Z,718.85
2016-11-27T07:45:40.744Z,720.78
2016-11-27T07:46:40.734Z,722.95
2016-11-27T07:47:40.740Z,724.27
2016-11-27T07:48:40.734Z,726.92
2016-11-27T07:49:40.734Z,729.18
2016-11-27T07:50:40.722Z,730.43
2016-11-27T07:51:40.740Z,731.96
2016-11-27T07:52:40.734Z,734.15
2016-11-27T07:53:40.737Z,735.64
2016-11-27T07:54:40.718Z,737.24
2016-11-27T07:55:40.734Z,738.23
2016-11-27T07:56:40.735Z,739.68
2016-11-27T07:57:40.741Z,740.81
2016-11-27T07:58:40.734Z,741.57
2016-11-27T07:59:40.744Z,742.77
2016-11-27T08:00:40.743Z,743.05
2016-11-27T08:01:40.744Z,744.15
2016-11-27T08:02:40.766Z,744.83
2016-11-27T08:03:40.735Z,745.48
2016-11-27T08:04:40.753Z,745.68
2016-11-27T08:05:40.752Z,746.48
2016-11-27T08:06:40.754Z,747.6
2016-11-27T08:07:40.744Z,748.94
2016-11-27T08:08:40.740Z,750.29
2016-11-27T08:09:40.742Z,751.77
2016-11-27T08:10:40.741Z,752.97
2016-11-27T08:11:40.732Z,754.91
2016-11-27T08:12:40.749Z,755.44
2016-11-27T08:13:40.744Z,757.29
2016-11-27T08:14:40.749Z,757.24
2016-11-27T08:15:40.751Z,756.91
2016-11-27T08:16:40.749Z,757.14
2016-11-27T08:17:40.771Z,756.99
2016-11-27T08:18:40.755Z,756.69
2016-11-27T08:19:40.759Z,756.3
2016-11-27T08:20:40.757Z,755.7
2016-11-27T08:21:40.751Z,755.72
2016-11-27T08:22:40.758Z,755.88
2016-11-27T08:23:40.754Z,757.21
2016-11-27T08:24:40.758Z,758.84
2016-11-27T08:25:40.752Z,761.13
2016-11-27T08:26:40.769Z,762.26
2016-11-27T08:27:40.754Z,763.45
2016-11-27T08:28:40.760Z,764.01
2016-11-27T08:29:40.767Z,765.35
2016-11-27T08:30:40.763Z,768.08
2016-11-27T08:31:40.751Z,770.12
2016-11-27T08:32:40.777Z,771.85
2016-11-27T08:33:40.760Z,774.57
2016-11-27T08:34:40.770Z,777.25
2016-11-27T08:35:40.764Z,779.61
2016-11-27T08:36:40.770Z,781.04
2016-11-27T08:37:40.788Z,782.32
2016-11-27T08:38:40.781Z,784.53
2016-11-27T08:39:40.775Z,786.39
2016-11-27T08:40:40.769Z,788.11
2016-11-27T08:41:40.794Z,789.57
2016-11-27T08:42:40.766Z,791.51
2016-11-27T08:43:40.771Z,793.24
2016-11-27T08:44:40.789Z,795.59
2016-11-27T08:45:40.777Z,798.34
2016-11-27T08:46:40.784Z,800.76
2016-11-27T08:47:40.781Z,803.67
2016-11-27T08:48:40.782Z,806.8
2016-11-27T08:49:40.781Z,811.14
2016-11-27T08:50:40.778Z,814.78
2016-11-27T08:51:40.781Z,817.79
2016-11-27T08:52:40.764Z,821.07
2016-11-27T08:53:40.782Z,823.7
2016-11-27T08:54:40.791Z,827.64
2016-11-27T08:55:40.794Z,831.5
2016-11-27T08:56:40.773Z,834.58
2016-11-27T08:57:40.772Z,837.37
2016-11-27T08:58:41.249Z,838.96
2016-11-27T08:59:40.769Z,840.2
2016-11-27T09:00:40.938Z,840.95
2016-11-27T09:01:40.776Z,842.23
2016-11-27T09:02:40.788Z,843.33
2016-11-27T09:03:40.781Z,844.5
2016-11-27T09:04:40.789Z,846.52
2016-11-27T09:05:40.794Z,847.86
2016-11-27T09:06:40.781Z,849.86
2016-11-27T09:07:40.792Z,851.45
2016-11-27T09:08:40.783Z,853.43
2016-11-27T09:09:40.789Z,855.37
2016-11-27T09:10:40.779Z,858.11
2016-11-27T09:11:40.788Z,860.83
2016-11-27T09:12:40.781Z,864.07
2016-11-27T09:13:40.792Z,867.4
2016-11-27T09:14:40.788Z,869.59
2016-11-27T09:15:40.797Z,872.46
2016-11-27T09:16:40.788Z,874.95
2016-11-27T09:17:40.832Z,877.23
2016-11-27T09:18:42.417Z,878.44
2016-11-27T09:19:40.794Z,880.5
2016-11-27T09:20:40.784Z,881.78
2016-11-27T09:21:40.794Z,882.44
2016-11-27T09:22:40.805Z,883.79
2016-11-27T09:23:40.790Z,884.18
2016-11-27T09:24:40.798Z,885.55
2016-11-27T09:25:40.805Z,887.1
2016-11-27T09:26:40.794Z,888.48
2016-11-27T09:27:40.799Z,889.28
2016-11-27T09:28:40.812Z,889.29
2016-11-27T09:29:40.833Z,889.53
2016-11-27T09:30:40.831Z,890.38
2016-11-27T09:31:40.814Z,890
2016-11-27T09:32:40.819Z,889.22
2016-11-27T09:33:40.949Z,889.49
2016-11-27T09:34:40.813Z,889.79
2016-11-27T09:35:40.812Z,889.27
2016-11-27T09:36:40.808Z,887.44
2016-11-27T09:37:40.809Z,885.59
2016-11-27T09:38:40.822Z,884.48
2016-11-27T09:39:40.806Z,884.64
2016-11-27T09:40:40.813Z,885.73
2016-11-27T09:41:40.812Z,886.99
2016-11-27T09:42:41.188Z,887.62
2016-11-27T09:43:40.826Z,887.78
2016-11-27T09:44:40.831Z,888
2016-11-27T09:45:40.803Z,887.47
2016-11-27T09:46:42.048Z,888.08
2016-11-27T09:47:41.053Z,887.96
2016-11-27T09:48:40.816Z,887.8
2016-11-27T09:49:40.825Z,888.08
2016-11-27T09:50:40.850Z,888.45
2016-11-27T09:51:40.822Z,889.25
2016-11-27T09:52:40.826Z,889.95
2016-11-27T09:53:40.805Z,890.03
2016-11-27T09:54:40.820Z,891.14
2016-11-27T09:55:40.857Z,892.07
2016-11-27T09:56:40.825Z,893.55
2016-11-27T09:57:40.820Z,895.59
2016-11-27T09:58:40.815Z,895.18
2016-11-27T09:59:40.831Z,895.57
2016-11-27T10:00:40.829Z,894.59
2016-11-27T10:01:40.831Z,893.86
2016-11-27T10:02:40.838Z,892.38
2016-11-27T10:03:40.833Z,890.39
2016-11-27T10:04:40.828Z,888.11
2016-11-27T10:05:40.833Z,887.47
2016-11-27T10:06:40.859Z,888.7
2016-11-27T10:07:40.851Z,890.09
2016-11-27T10:08:40.836Z,892.28
2016-11-27T10:09:42.913Z,894.57
2016-11-27T10:10:40.859Z,898.59
2016-11-27T10:11:42.612Z,901.5
2016-11-27T10:12:42.382Z,904.44
2016-11-27T10:13:43.178Z,905.56
2016-11-27T10:14:40.840Z,905.36
2016-11-27T10:15:41.224Z,906.4
2016-11-27T10:16:41.062Z,905.61
2016-11-27T10:17:43.044Z,904.36
2016-11-27T10:18:43.259Z,903.5
2016-11-27T10:19:43.125Z,903.38
2016-11-27T10:20:43.076Z,903.07
2016-11-27T10:21:43.019Z,901.78
2016-11-27T10:22:42.805Z,900.58
2016-11-27T10:23:44.824Z,899.59
2016-11-27T10:24:44.350Z,899.99
2016-11-27T10:25:43.214Z,899.72
2016-11-27T10:26:42.952Z,901.74
2016-11-27T10:27:42.760Z,903.95
2016-11-27T10:28:42.971Z,907.07
2016-11-27T10:29:43.594Z,909.34
2016-11-27T10:30:43.634Z,912.35
2016-11-27T10:31:42.916Z,914.91
2016-11-27T10:32:43.723Z,916.53
2016-11-27T10:33:42.954Z,917.48
2016-11-27T10:34:43.164Z,918.51
2016-11-27T10:35:43.064Z,920.69
2016-11-27T10:36:43.140Z,922.48
2016-11-27T10:37:43.560Z,925
2016-11-27T10:38:43.456Z,925.52
2016-11-27T10:39:43.529Z,925.62
2016-11-27T10:40:40.865Z,925.06
2016-11-27T10:41:40.862Z,923.77
2016-11-27T10:42:40.882Z,921.75
2016-11-27T10:43:40.881Z,919.62
2016-11-27T10:44:40.875Z,916.71
2016-11-27T10:45:40.862Z,913.74
2016-11-27T10:46:40.875Z,911.01
2016-11-27T10:47:40.923Z,910.05
2016-11-27T10:48:40.888Z,908.51
2016-11-27T10:49:40.849Z,907.47
2016-11-27T10:50:40.875Z,906.16
2016-11-27T10:51:40.876Z,904.54
2016-11-27T10:52:40.888Z,902.27
2016-11-27T10:53:40.879Z,901.69
2016-11-27T10:54:40.886Z,901.41
2016-11-27T10:55:41.448Z,901.85
2016-11-27T10:56:40.882Z,901.91
2016-11-27T10:57:41.701Z,902.58
2016-11-27T10:58:40.892Z,904.43
2016-11-27T10:59:41.234Z,908.45
2016-11-27T11:00:40.907Z,912.27
2016-11-27T11:01:41.189Z,915.92
2016-11-27T11:02:40.901Z,918.45
2016-11-27T11:03:40.895Z,921.02
2016-11-27T11:04:40.889Z,923.43
2016-11-27T11:05:40.911Z,925.9
2016-11-27T11:06:40.888Z,929.3
2016-11-27T11:07:40.901Z,933.33
2016-11-27T11:08:40.885Z,937.75
2016-11-27T11:09:40.890Z,942.49
2016-11-27T11:10:40.875Z,946.53
2016-11-27T11:11:40.899Z,950.13
2016-11-27T11:12:40.921Z,953.67
2016-11-27T11:13:40.895Z,957.29
2016-11-27T11:14:40.889Z,959.8
2016-11-27T11:15:40.901Z,962.27
2016-11-27T11:16:41.823Z,962.37
2016-11-27T11:17:40.911Z,961.55
2016-11-27T11:18:40.923Z,961.11
2016-11-27T11:19:40.892Z,961.67
2016-11-27T11:20:40.950Z,962.87
2016-11-27T11:21:40.892Z,963.22
2016-11-27T11:22:40.912Z,963.34
2016-11-27T11:23:40.887Z,964.99
2016-11-27T11:24:40.930Z,966.94
2016-11-27T11:25:40.885Z,968.87
2016-11-27T11:26:40.908Z,970.62
2016-11-27T11:27:40.911Z,971.58
2016-11-27T11:28:40.894Z,973.05
2016-11-27T11:29:40.903Z,972.39
2016-11-27T11:30:40.897Z,972.13
2016-11-27T11:31:40.930Z,970.39
2016-11-27T11:32:40.944Z,968.58
2016-11-27T11:33:40.901Z,967.15
2016-11-27T11:34:40.925Z,965.97
2016-11-27T11:35:40.901Z,964.09
2016-11-27T11:36:40.889Z,962.75
2016-11-27T11:37:42.598Z,961.6
2016-11-27T11:38:40.904Z,962.05
2016-11-27T11:39:40.898Z,962.03
2016-11-27T11:40:40.905Z,961.21
2016-11-27T11:41:40.893Z,960.82
2016-11-27T11:42:40.932Z,959.59
2016-11-27T11:43:40.911Z,959.46
2016-11-27T11:44:40.934Z,958.17
2016-11-27T11:45:40.959Z,956.38
2016-11-27T11:46:40.904Z,954.21
2016-11-27T11:47:40.921Z,952.2
2016-11-27T11:48:40.907Z,951.27
2016-11-27T11:49:40.928Z,950.04
2016-11-27T11:50:40.915Z,948.56
2016-11-27T11:51:40.933Z,947.32
2016-11-27T11:52:40.936Z,946.22
2016-11-27T11:53:40.932Z,944.99
2016-11-27T11:54:40.917Z,943.77
2016-11-27T11:55:40.978Z,942.68
2016-11-27T11:56:40.930Z,940.99
2016-11-27T11:57:40.946Z,938.38
2016-11-27T11:58:40.909Z,936.67
2016-11-27T11:59:40.919Z,935.01
2016-11-27T12:00:40.911Z,931.96
2016-11-27T12:01:40.906Z,929.88
2016-11-27T12:02:40.936Z,927.93
2016-11-27T12:03:40.917Z,926.1
2016-11-27T12:04:40.939Z,924.69
2016-11-27T12:05:40.930Z,924.7
2016-11-27T12:06:40.955Z,924.22
2016-11-27T12:07:41.721Z,923.36
2016-11-27T12:08:40.923Z,922.22
2016-11-27T12:09:40.924Z,920.98
2016-11-27T12:10:40.919Z,919.68
2016-11-27T12:11:40.919Z,918.57
2016-11-27T12:12:40.931Z,917.98
2016-11-27T12:13:40.934Z,917.04
2016-11-27T12:14:40.930Z,916.48
2016-11-27T12:15:40.948Z,915.45
2016-11-27T12:16:40.943Z,915.5
2016-11-27T12:17:40.936Z,914.74
2016-11-27T12:18:40.942Z,914.18
2016-11-27T12:19:42.650Z,914.13
2016-11-27T12:20:40.950Z,913.69
2016-11-27T12:21:40.933Z,913.48
2016-11-27T12:22:40.955Z,912.91
2016-11-27T12:23:40.954Z,912.08
2016-11-27T12:24:40.946Z,911.95
2016-11-27T12:25:40.973Z,910.49
2016-11-27T12:26:40.952Z,909.43
2016-11-27T12:27:40.933Z,908.62
2016-11-27T12:28:40.933Z,908.67
2016-11-27T12:29:40.955Z,907.48
2016-11-27T12:30:40.941Z,906.06
2016-11-27T12:31:40.947Z,905.9